Time;durP1;ratioP1;P1;durP2;ratioP2;P2;SDS_P1;SDS_P2;PMS_P1;PMS_P2;Temp;Humidity;BMP_temperature;BMP_pressure;BME280_temperature;BME280_humidity;BME280_pressure;Samples;Min_cycle;Max_cycle;Signal;HPM_P1;HPM_P2
2023/02/28 00:00:13;;;;;;;14.67;8.77;;;-0.10;99.90;;;;;;4211839;28;20032;-65
2023/02/28 00:02:17;;;;;;;11.53;7.30;;;-0.10;99.90;;;;;;4213024;28;20310;-63
2023/02/28 00:04:18;;;;;;;14.20;8.13;;;-0.10;99.90;;;;;;4211661;28;20253;-66
2023/02/28 00:06:20;;;;;;;12.93;7.77;;;-0.10;99.90;;;;;;4212787;28;20670;-60
2023/02/28 00:08:21;;;;;;;11.77;7.10;;;-0.10;99.90;;;;;;4211282;28;20330;-61
2023/02/28 00:10:26;;;;;;;13.20;7.57;;;-0.10;99.90;;;;;;4212581;28;20659;-66
2023/02/28 00:12:27;;;;;;;12.97;6.80;;;-0.10;99.90;;;;;;4211519;28;20314;-66
2023/02/28 00:14:30;;;;;;;14.20;8.50;;;0.00;99.90;;;;;;4212193;28;20284;-66
2023/02/28 00:16:31;;;;;;;13.07;7.97;;;0.00;99.90;;;;;;4211975;28;20253;-62
2023/02/28 00:18:33;;;;;;;14.93;8.23;;;0.00;99.90;;;;;;4211583;28;20369;-64
2023/02/28 00:20:34;;;;;;;12.57;7.70;;;0.00;99.90;;;;;;4212410;28;20310;-64
2023/02/28 00:22:35;;;;;;;13.53;7.33;;;-0.10;99.90;;;;;;4211126;28;20269;-61
2023/02/28 00:24:37;;;;;;;14.33;8.67;;;-0.10;99.90;;;;;;4212309;28;20292;-60
2023/02/28 00:26:38;;;;;;;15.97;8.40;;;-0.10;99.90;;;;;;4211314;28;20358;-64
2023/02/28 00:28:39;;;;;;;15.60;9.17;;;-0.20;99.90;;;;;;4212645;28;20265;-61
2023/02/28 00:30:40;;;;;;;19.10;8.83;;;-0.20;99.90;;;;;;4211809;28;20280;-61
2023/02/28 00:32:41;;;;;;;16.50;8.80;;;-0.20;99.90;;;;;;4212589;28;20330;-64
2023/02/28 00:34:42;;;;;;;18.63;9.03;;;-0.20;99.90;;;;;;4210997;28;20349;-65
2023/02/28 00:36:46;;;;;;;14.93;8.80;;;-0.20;99.90;;;;;;4212385;28;20314;-66
2023/02/28 00:38:47;;;;;;;16.13;8.60;;;-0.20;99.90;;;;;;4211173;28;20265;-61
2023/02/28 00:40:48;;;;;;;18.77;10.43;;;-0.20;99.90;;;;;;4212335;28;20284;-63
2023/02/28 00:42:49;;;;;;;18.30;9.20;;;-0.20;99.90;;;;;;4210944;28;20314;-61
2023/02/28 00:44:50;;;;;;;18.13;9.77;;;-0.20;99.90;;;;;;4211898;28;20284;-65
2023/02/28 00:46:51;;;;;;;19.70;10.23;;;-0.20;99.90;;;;;;4210872;28;20293;-64
2023/02/28 00:48:52;;;;;;;18.90;9.73;;;-0.30;99.90;;;;;;4211478;28;20256;-62
2023/02/28 00:50:54;;;;;;;20.00;9.70;;;-0.20;99.90;;;;;;4211185;28;20287;-63
2023/02/28 00:52:55;;;;;;;19.13;10.03;;;-0.20;99.90;;;;;;4210174;28;20797;-64
2023/02/28 00:54:56;;;;;;;15.67;8.93;;;-0.20;99.90;;;;;;4211789;28;20277;-63
2023/02/28 00:56:57;;;;;;;15.70;9.03;;;-0.20;99.90;;;;;;4210969;28;20257;-61
2023/02/28 00:58:58;;;;;;;14.87;8.63;;;-0.30;99.90;;;;;;4211898;28;20326;-66
2023/02/28 01:00:59;;;;;;;15.10;8.67;;;-0.30;99.90;;;;;;4211125;28;20341;-61
2023/02/28 01:03:00;;;;;;;16.37;8.47;;;-0.30;99.90;;;;;;4211843;28;20655;-61
2023/02/28 01:05:03;;;;;;;18.33;9.67;;;-0.30;99.90;;;;;;4210526;28;20280;-64
2023/02/28 01:07:04;;;;;;;19.33;9.90;;;-0.30;99.90;;;;;;4211392;28;21037;-62
2023/02/28 01:09:06;;;;;;;18.87;8.93;;;-0.30;99.90;;;;;;4210873;28;20272;-63
2023/02/28 01:11:10;;;;;;;18.73;10.27;;;-0.30;99.90;;;;;;4212168;28;20321;-62
2023/02/28 01:13:13;;;;;;;16.70;9.63;;;-0.30;99.90;;;;;;4210357;28;20660;-62
2023/02/28 01:15:15;;;;;;;19.33;10.53;;;-0.30;99.90;;;;;;4211617;28;20671;-63
2023/02/28 01:17:16;;;;;;;16.73;9.03;;;-0.30;99.90;;;;;;4210625;28;20269;-62
2023/02/28 01:19:17;;;;;;;16.30;9.10;;;-0.30;99.90;;;;;;4211305;28;20325;-62
2023/02/28 01:21:19;;;;;;;19.63;10.53;;;-0.30;99.90;;;;;;4210630;28;20639;-65
2023/02/28 01:23:23;;;;;;;18.07;9.73;;;-0.30;99.90;;;;;;4211035;28;20286;-62
2023/02/28 01:25:24;;;;;;;17.87;10.20;;;-0.30;99.90;;;;;;4211205;28;20273;-66
2023/02/28 01:27:26;;;;;;;18.30;9.47;;;-0.30;99.90;;;;;;4210534;28;20296;-62
2023/02/28 01:29:27;;;;;;;17.07;10.40;;;-0.30;99.90;;;;;;4212157;28;20821;-64
2023/02/28 01:31:28;;;;;;;17.60;9.50;;;-0.30;99.90;;;;;;4210327;28;20277;-60
2023/02/28 01:33:30;;;;;;;17.07;10.17;;;-0.30;99.90;;;;;;4211277;28;20257;-57
2023/02/28 01:35:35;;;;;;;16.73;9.30;;;-0.30;99.90;;;;;;4210609;28;20326;-65
2023/02/28 01:37:36;;;;;;;15.77;9.37;;;-0.30;99.90;;;;;;4211570;28;20249;-64
2023/02/28 01:39:37;;;;;;;15.73;9.00;;;-0.30;99.90;;;;;;4210468;28;20253;-65
2023/02/28 01:41:39;;;;;;;17.00;9.37;;;-0.30;99.90;;;;;;4211638;28;21472;-66
2023/02/28 01:43:43;;;;;;;16.53;9.73;;;-0.30;99.90;;;;;;4210470;28;20261;-64
2023/02/28 01:45:44;;;;;;;16.23;8.60;;;-0.30;99.90;;;;;;4211665;28;20277;-61
2023/02/28 01:47:48;;;;;;;18.33;9.77;;;-0.30;99.90;;;;;;4210252;28;20292;-61
2023/02/28 01:49:51;;;;;;;17.30;10.27;;;-0.30;99.90;;;;;;4211195;28;20280;-62
2023/02/28 01:51:56;;;;;;;20.43;10.67;;;-0.30;99.90;;;;;;4210208;28;20314;-64
2023/02/28 01:54:01;;;;;;;17.03;10.07;;;-0.30;99.90;;;;;;4210925;28;20748;-65
2023/02/28 01:56:06;;;;;;;16.37;9.07;;;-0.30;99.90;;;;;;4210655;28;20309;-65
2023/02/28 01:58:09;;;;;;;17.70;9.33;;;-0.30;99.90;;;;;;4211142;28;20265;-65
2023/02/28 02:00:16;;;;;;;16.23;8.43;;;-0.40;99.90;;;;;;4211121;28;20644;-64
2023/02/28 02:02:20;;;;;;;17.77;9.30;;;-0.40;99.90;;;;;;4210704;28;20273;-65
2023/02/28 02:04:25;;;;;;;16.17;9.13;;;-0.40;99.90;;;;;;4213419;28;20668;-61
2023/02/28 02:06:36;;;;;;;16.23;9.20;;;-0.40;99.90;;;;;;4213780;28;20821;-65
2023/02/28 02:08:38;;;;;;;16.73;8.47;;;-0.40;99.90;;;;;;4214268;28;20306;-60
2023/02/28 02:10:47;;;;;;;15.40;8.20;;;-0.30;99.90;;;;;;4213284;28;20322;-61
2023/02/28 02:12:57;;;;;;;12.03;7.23;;;-0.30;99.90;;;;;;4214330;28;20346;-60
2023/02/28 02:15:03;;;;;;;12.13;6.93;;;-0.30;99.90;;;;;;4213684;28;20277;-66
2023/02/28 02:17:32;;;;;;;13.67;6.93;;;-0.40;99.90;;;;;;4214672;28;20272;-61
2023/02/28 02:19:51;;;;;;;10.83;6.57;;;-0.40;99.90;;;;;;4213459;28;20663;-65
2023/02/28 02:22:20;;;;;;;9.90;5.83;;;-0.40;99.90;;;;;;4213612;28;20286;-63
2023/02/28 02:24:50;;;;;;;11.30;6.53;;;-0.40;99.90;;;;;;4196214;28;20289;-66
2023/02/28 02:26:51;;;;;;;11.32;6.50;;;-0.40;99.90;;;;;;4196135;28;20737;-60
2023/02/28 02:29:11;;;;;;;12.53;7.40;;;-0.40;99.90;;;;;;4210577;28;20104;-61
2023/02/28 02:31:33;;;;;;;11.30;6.33;;;-0.40;99.90;;;;;;4213651;28;20257;-65
2023/02/28 02:33:53;;;;;;;10.13;6.00;;;-0.40;99.90;;;;;;4214218;28;20822;-62
2023/02/28 02:36:11;;;;;;;11.63;6.57;;;-0.40;99.90;;;;;;4213265;28;20257;-61
2023/02/28 02:38:31;;;;;;;10.93;6.13;;;-0.40;99.90;;;;;;4212986;28;20777;-62
2023/02/28 02:41:14;;;;;;;14.73;7.50;;;-0.40;99.90;;;;;;4212999;28;20670;-61
2023/02/28 02:43:19;;;;;;;10.60;5.90;;;-0.40;99.90;;;;;;4195476;28;20803;-65
2023/02/28 02:45:25;;;;;;;10.33;6.00;;;-0.40;99.90;;;;;;4196302;28;20319;-64
2023/02/28 02:47:30;;;;;;;11.73;7.03;;;-0.50;99.90;;;;;;4196876;28;21121;-60
2023/02/28 02:49:33;;;;;;;12.13;7.27;;;-0.50;99.90;;;;;;4206503;28;20318;-60
2023/02/28 02:51:36;;;;;;;12.40;6.73;;;-0.50;99.90;;;;;;4213899;28;20651;-60
2023/02/28 02:53:51;;;;;;;12.10;6.50;;;-0.40;99.90;;;;;;4212892;28;21050;-61
2023/02/28 02:55:55;;;;;;;11.70;7.20;;;-0.50;99.90;;;;;;4214158;28;20318;-60
2023/02/28 02:58:06;;;;;;;11.77;6.33;;;-0.40;99.90;;;;;;4212374;28;20598;-61
2023/02/28 03:00:09;;;;;;;9.97;6.40;;;-0.40;99.90;;;;;;4214050;28;20276;-62
2023/02/28 03:02:14;;;;;;;10.10;5.77;;;-0.50;99.90;;;;;;4212532;27;20265;-59
2023/02/28 03:04:24;;;;;;;11.60;6.27;;;-0.40;99.90;;;;;;4213606;28;20749;-65
2023/02/28 03:06:26;;;;;;;13.50;7.30;;;-0.50;99.90;;;;;;4212664;28;20265;-59
2023/02/28 03:08:28;;;;;;;11.80;7.10;;;-0.50;99.90;;;;;;4213325;28;20434;-60
2023/02/28 03:10:31;;;;;;;13.30;6.83;;;-0.50;99.90;;;;;;4212538;28;20318;-61
2023/02/28 03:12:56;;;;;;;11.47;6.40;;;-0.50;99.90;;;;;;4213164;28;20273;-60
2023/02/28 03:15:18;;;;;;;12.90;6.97;;;-0.50;99.90;;;;;;4211130;28;20337;-61
2023/02/28 03:17:38;;;;;;;13.30;7.10;;;-0.40;99.90;;;;;;4213562;28;20315;-61
2023/02/28 03:19:53;;;;;;;12.93;6.83;;;-0.40;99.90;;;;;;4212126;28;20272;-62
2023/02/28 03:22:08;;;;;;;12.30;6.97;;;-0.40;99.90;;;;;;4213221;28;20261;-59
2023/02/28 03:24:29;;;;;;;13.60;8.07;;;-0.40;99.90;;;;;;4211780;28;20331;-60
2023/02/28 03:26:32;;;;;;;11.93;6.47;;;-0.40;99.90;;;;;;4196029;28;20753;-63
2023/02/28 03:28:53;;;;;;;13.23;7.10;;;-0.40;99.90;;;;;;4205207;28;20326;-60
2023/02/28 03:31:02;;;;;;;14.95;7.03;;;-0.40;99.90;;;;;;4213278;28;20310;-60
2023/02/28 03:33:12;;;;;;;13.53;8.23;;;-0.40;99.90;;;;;;4212824;28;20028;-64
2023/02/28 03:35:22;;;;;;;14.10;7.70;;;-0.40;99.90;;;;;;4212384;28;20265;-59
2023/02/28 03:37:24;;;;;;;15.03;8.70;;;-0.40;99.90;;;;;;4212446;28;20048;-65
2023/02/28 03:39:37;;;;;;;14.97;8.30;;;-0.50;99.90;;;;;;4211641;28;20260;-62
2023/02/28 03:41:47;;;;;;;16.80;9.57;;;-0.40;99.90;;;;;;4212387;28;20810;-65
2023/02/28 03:43:59;;;;;;;18.10;9.83;;;-0.40;99.90;;;;;;4212389;28;20349;-62
2023/02/28 03:46:05;;;;;;;18.43;9.83;;;-0.40;99.90;;;;;;4212361;28;20305;-65
2023/02/28 03:48:27;;;;;;;15.80;8.77;;;-0.40;99.90;;;;;;4212568;28;20284;-61
2023/02/28 03:50:42;;;;;;;15.47;8.97;;;-0.40;99.90;;;;;;4190510;28;20277;-66
2023/02/28 03:53:01;;;;;;;17.80;9.53;;;-0.30;99.90;;;;;;4211888;28;20306;-59
2023/02/28 03:55:08;;;;;;;16.13;9.47;;;-0.30;99.90;;;;;;4212576;28;20655;-64
2023/02/28 03:57:53;;;;;;;16.30;9.00;;;-0.30;99.90;;;;;;4211995;28;20762;-65
2023/02/28 04:00:04;;;;;;;16.80;8.70;;;-0.30;99.90;;;;;;4212940;28;20276;-65
2023/02/28 04:02:07;;;;;;;18.70;9.50;;;-0.30;99.90;;;;;;4211569;28;20338;-60
2023/02/28 04:04:10;;;;;;;19.10;9.97;;;-0.30;99.90;;;;;;4212652;28;20253;-63
2023/02/28 04:06:18;;;;;;;18.27;9.63;;;-0.20;99.90;;;;;;4211587;28;20257;-62
2023/02/28 04:08:20;;;;;;;18.70;9.17;;;-0.30;99.90;;;;;;4196039;28;20297;-65
2023/02/28 04:10:21;;;;;;;21.10;9.77;;;-0.30;99.90;;;;;;4210596;28;20318;-64
2023/02/28 04:12:23;;;;;;;19.33;10.50;;;-0.20;99.90;;;;;;4211871;28;20598;-63
2023/02/28 04:14:24;;;;;;;19.07;10.30;;;-0.30;99.90;;;;;;4211814;28;20260;-62
2023/02/28 04:16:25;;;;;;;19.00;10.60;;;-0.20;99.90;;;;;;4211873;28;20753;-66
2023/02/28 04:18:26;;;;;;;22.57;9.93;;;-0.20;99.90;;;;;;4211554;28;20326;-62
2023/02/28 04:20:27;;;;;;;20.33;10.17;;;-0.20;99.90;;;;;;4211492;28;20310;-65
2023/02/28 04:22:28;;;;;;;19.67;10.37;;;-0.20;99.90;;;;;;4212134;28;21097;-63
2023/02/28 04:24:29;;;;;;;20.17;9.93;;;-0.20;99.90;;;;;;4210965;28;20319;-61
2023/02/28 04:26:35;;;;;;;21.10;10.80;;;-0.20;99.90;;;;;;4212582;28;20267;-65
2023/02/28 04:28:38;;;;;;;22.70;11.20;;;-0.20;99.90;;;;;;4211087;28;20292;-65
2023/02/28 04:30:39;;;;;;;20.33;10.10;;;-0.10;99.90;;;;;;4212842;28;20288;-61
2023/02/28 04:32:40;;;;;;;20.93;11.03;;;-0.20;99.90;;;;;;4211436;28;20261;-62
2023/02/28 04:34:41;;;;;;;19.43;11.00;;;-0.20;99.90;;;;;;4212357;28;20286;-60
2023/02/28 04:36:43;;;;;;;21.53;10.60;;;-0.10;99.90;;;;;;4211338;28;20273;-63
2023/02/28 04:38:45;;;;;;;23.87;11.83;;;-0.10;99.90;;;;;;4212195;28;20728;-66
2023/02/28 04:40:46;;;;;;;20.93;10.50;;;-0.10;99.90;;;;;;4210736;28;20272;-64
2023/02/28 04:42:47;;;;;;;22.27;10.70;;;-0.10;99.90;;;;;;4212003;28;20330;-62
2023/02/28 04:44:48;;;;;;;22.53;11.20;;;-0.10;99.90;;;;;;4210589;28;20686;-64
2023/02/28 04:46:50;;;;;;;22.87;11.27;;;-0.10;99.90;;;;;;4211484;28;20269;-63
2023/02/28 04:48:51;;;;;;;24.90;11.50;;;-0.20;99.90;;;;;;4210776;28;20338;-66
2023/02/28 04:50:52;;;;;;;24.20;11.80;;;-0.10;99.90;;;;;;4211293;28;20272;-63
2023/02/28 04:52:54;;;;;;;25.80;10.67;;;-0.20;99.90;;;;;;4211109;28;20288;-65
2023/02/28 04:54:55;;;;;;;23.97;11.23;;;-0.20;99.90;;;;;;4209627;28;20333;-61
2023/02/28 04:56:57;;;;;;;25.47;11.90;;;-0.20;99.90;;;;;;4212059;28;20276;-64
2023/02/28 04:58:58;;;;;;;28.90;12.97;;;-0.20;99.90;;;;;;4210893;28;20310;-63
2023/02/28 05:01:12;;;;;;;29.27;13.23;;;-0.20;99.90;;;;;;4212292;28;20268;-62
2023/02/28 05:03:13;;;;;;;24.83;11.97;;;-0.20;99.90;;;;;;4210310;28;20329;-64
2023/02/28 05:05:17;;;;;;;24.67;12.10;;;-0.20;99.90;;;;;;4211521;28;20318;-62
2023/02/28 05:07:18;;;;;;;26.17;11.90;;;-0.20;99.90;;;;;;4208685;28;20286;-63
2023/02/28 05:09:20;;;;;;;26.17;12.93;;;-0.20;99.90;;;;;;4211561;28;20780;-64
2023/02/28 05:11:25;;;;;;;23.90;11.03;;;-0.20;99.90;;;;;;4210262;28;20261;-63
2023/02/28 05:13:27;;;;;;;25.33;11.83;;;-0.10;99.90;;;;;;4211632;28;20334;-66
2023/02/28 05:15:28;;;;;;;27.40;11.90;;;-0.20;99.90;;;;;;4210115;28;20318;-64
2023/02/28 05:17:29;;;;;;;23.27;10.83;;;-0.20;99.90;;;;;;4211164;28;20371;-63
2023/02/28 05:19:30;;;;;;;28.97;14.60;;;-0.10;99.90;;;;;;4209730;28;20241;-62
2023/02/28 05:21:33;;;;;;;23.27;11.73;;;-0.10;99.90;;;;;;4210604;28;20253;-65
2023/02/28 05:23:34;;;;;;;33.53;17.53;;;-0.10;99.90;;;;;;4210280;28;20333;-61
2023/02/28 05:25:35;;;;;;;26.50;13.27;;;-0.10;99.90;;;;;;4210365;28;20323;-65
2023/02/28 05:27:36;;;;;;;55.43;26.53;;;-0.10;99.90;;;;;;4210150;28;20268;-63
2023/02/28 05:29:41;;;;;;;30.43;14.40;;;-0.10;99.90;;;;;;4208071;28;20337;-60
2023/02/28 05:31:43;;;;;;;32.53;15.23;;;-0.10;99.90;;;;;;4210625;28;20344;-62
2023/02/28 05:33:44;;;;;;;30.23;12.20;;;0.00;99.90;;;;;;4209673;28;20702;-61
2023/02/28 05:35:45;;;;;;;23.73;12.73;;;0.00;99.90;;;;;;4200884;28;20555;-62
2023/02/28 05:37:46;;;;;;;21.40;11.80;;;-0.10;99.90;;;;;;4209437;28;20280;-67
2023/02/28 05:39:47;;;;;;;22.97;11.90;;;0.00;99.90;;;;;;4210600;28;20736;-63
2023/02/28 05:41:48;;;;;;;24.33;12.70;;;0.00;99.90;;;;;;4210007;28;20264;-64
2023/02/28 05:43:50;;;;;;;27.03;13.30;;;0.00;99.90;;;;;;4210385;28;20316;-62
2023/02/28 05:45:51;;;;;;;22.80;10.37;;;-0.10;99.90;;;;;;4209755;28;20952;-62
2023/02/28 05:47:55;;;;;;;31.20;17.93;;;-0.10;99.90;;;;;;4210821;28;20277;-65
2023/02/28 05:49:56;;;;;;;23.83;12.13;;;-0.10;99.90;;;;;;4210216;28;20265;-64
2023/02/28 05:51:57;;;;;;;29.07;15.60;;;-0.10;99.90;;;;;;4210834;28;20870;-64
2023/02/28 05:54:01;;;;;;;29.13;15.03;;;0.00;99.90;;;;;;4210047;28;20277;-65
2023/02/28 05:56:02;;;;;;;25.17;12.67;;;0.00;99.90;;;;;;4210080;28;20293;-61
2023/02/28 05:58:04;;;;;;;28.03;13.07;;;0.00;99.90;;;;;;4210377;28;20269;-62
2023/02/28 06:00:06;;;;;;;24.47;10.43;;;0.00;99.90;;;;;;4209397;28;20334;-61
2023/02/28 06:02:13;;;;;;;23.13;12.20;;;-0.10;99.90;;;;;;4210503;28;20559;-61
2023/02/28 06:04:17;;;;;;;25.37;12.87;;;0.00;99.90;;;;;;4208729;28;20269;-64
2023/02/28 06:06:18;;;;;;;26.73;11.97;;;0.00;99.90;;;;;;4210442;28;20310;-64
2023/02/28 06:08:20;;;;;;;23.10;11.30;;;0.00;99.90;;;;;;4208919;28;20292;-63
2023/02/28 06:10:21;;;;;;;19.87;10.57;;;0.00;99.90;;;;;;4210940;28;20272;-67
2023/02/28 06:12:22;;;;;;;24.50;11.60;;;0.00;99.90;;;;;;4208953;28;20284;-66
2023/02/28 06:14:23;;;;;;;23.10;11.20;;;0.00;99.90;;;;;;4209353;28;20640;-69
2023/02/28 06:16:25;;;;;;;24.60;12.03;;;0.00;99.90;;;;;;4209349;28;20679;-61
2023/02/28 06:18:26;;;;;;;20.70;10.77;;;0.00;99.90;;;;;;4210405;28;20675;-59
2023/02/28 06:20:29;;;;;;;25.27;11.57;;;0.00;99.90;;;;;;4209356;28;20330;-64
2023/02/28 06:22:31;;;;;;;19.33;10.57;;;0.10;99.90;;;;;;4210746;28;20740;-62
2023/02/28 06:24:32;;;;;;;25.20;12.33;;;0.10;99.90;;;;;;4209521;28;20337;-62
2023/02/28 06:26:33;;;;;;;24.87;11.40;;;0.10;99.90;;;;;;4211025;28;20283;-61
2023/02/28 06:28:34;;;;;;;24.40;11.67;;;0.20;99.90;;;;;;4209812;28;20333;-62
2023/02/28 06:30:37;;;;;;;22.13;11.47;;;0.20;99.90;;;;;;4210854;28;20401;-68
2023/02/28 06:32:39;;;;;;;20.50;11.10;;;0.20;99.90;;;;;;4209904;28;20253;-65
2023/02/28 06:34:40;;;;;;;21.83;11.37;;;0.30;99.90;;;;;;4209624;28;20292;-62
2023/02/28 06:36:41;;;;;;;22.30;11.53;;;0.30;99.90;;;;;;4210350;28;20332;-61
2023/02/28 06:38:43;;;;;;;18.47;9.10;;;0.30;99.90;;;;;;4209616;28;20273;-61
2023/02/28 06:40:52;;;;;;;20.90;10.63;;;0.40;99.90;;;;;;4210162;28;20794;-61
2023/02/28 06:42:53;;;;;;;20.87;10.40;;;0.40;99.90;;;;;;4209299;28;20322;-61
2023/02/28 06:44:58;;;;;;;19.43;10.20;;;0.40;99.90;;;;;;4210562;28;20726;-63
2023/02/28 06:46:59;;;;;;;22.77;11.27;;;0.40;99.90;;;;;;4209672;28;20345;-66
2023/02/28 06:49:00;;;;;;;19.90;10.80;;;0.40;99.90;;;;;;4210481;28;20350;-66
2023/02/28 06:51:07;;;;;;;19.77;11.90;;;0.50;99.90;;;;;;4211108;28;20248;-61
2023/02/28 06:53:08;;;;;;;21.03;11.03;;;0.60;99.90;;;;;;4213742;28;20421;-68
2023/02/28 06:55:09;;;;;;;21.03;11.13;;;0.60;99.90;;;;;;4212592;28;20338;-62
2023/02/28 06:57:10;;;;;;;23.60;11.73;;;0.60;99.90;;;;;;4213418;28;20330;-62
2023/02/28 06:59:13;;;;;;;27.90;14.37;;;0.70;99.90;;;;;;4212510;28;20253;-67
2023/02/28 07:01:14;;;;;;;24.13;12.53;;;0.80;99.90;;;;;;4213864;28;20322;-65
2023/02/28 07:03:17;;;;;;;22.00;10.80;;;0.80;99.90;;;;;;4212425;28;20433;-69
2023/02/28 07:05:18;;;;;;;20.53;12.07;;;0.90;99.90;;;;;;4212943;28;20322;-63
2023/02/28 07:07:19;;;;;;;22.40;11.93;;;0.90;99.90;;;;;;4212840;28;20372;-64
2023/02/28 07:09:20;;;;;;;21.70;11.63;;;0.90;99.90;;;;;;4212531;28;20308;-67
2023/02/28 07:11:25;;;;;;;20.80;12.03;;;1.10;99.90;;;;;;4212932;28;20264;-66
2023/02/28 07:13:26;;;;;;;22.27;11.90;;;1.10;99.90;;;;;;4212321;28;20726;-62
2023/02/28 07:15:27;;;;;;;22.07;11.73;;;1.20;99.90;;;;;;4212808;28;20671;-67
2023/02/28 07:17:28;;;;;;;17.83;9.10;;;1.20;99.90;;;;;;4212009;28;20299;-65
2023/02/28 07:19:29;;;;;;;23.27;11.13;;;1.30;99.90;;;;;;4213017;28;20265;-64
2023/02/28 07:21:31;;;;;;;22.70;11.63;;;1.30;99.90;;;;;;4212166;28;20265;-68
2023/02/28 07:23:32;;;;;;;24.83;11.67;;;1.30;99.90;;;;;;4213213;28;20761;-67
2023/02/28 07:25:33;;;;;;;23.07;11.60;;;1.20;99.90;;;;;;4211832;28;20671;-65
2023/02/28 07:27:34;;;;;;;22.03;10.87;;;1.20;99.90;;;;;;4213188;28;20253;-62
2023/02/28 07:29:36;;;;;;;19.90;10.23;;;1.30;99.90;;;;;;4211798;28;20296;-67
2023/02/28 07:31:37;;;;;;;18.50;11.20;;;1.20;99.90;;;;;;4213620;28;20299;-62
2023/02/28 07:33:38;;;;;;;19.53;10.83;;;1.20;99.90;;;;;;4211774;28;20318;-60
2023/02/28 07:35:39;;;;;;;16.87;9.40;;;1.20;99.90;;;;;;4211505;28;20285;-67
2023/02/28 07:37:41;;;;;;;17.07;9.70;;;1.30;99.90;;;;;;4211793;28;20253;-63
2023/02/28 07:39:42;;;;;;;20.43;10.70;;;1.30;99.90;;;;;;4212142;28;20310;-61
2023/02/28 07:41:44;;;;;;;20.07;10.80;;;1.30;99.90;;;;;;4212295;28;20272;-68
2023/02/28 07:43:45;;;;;;;18.47;10.73;;;1.30;99.90;;;;;;4212069;28;20261;-62
2023/02/28 07:45:46;;;;;;;18.13;9.27;;;1.30;99.90;;;;;;4212397;28;20303;-66
2023/02/28 07:47:47;;;;;;;19.73;10.40;;;1.30;99.90;;;;;;4211636;28;20257;-69
2023/02/28 07:49:48;;;;;;;18.63;9.73;;;1.30;99.90;;;;;;4212583;28;20292;-66
2023/02/28 07:51:50;;;;;;;15.70;9.37;;;1.40;99.90;;;;;;4211673;28;20303;-68
2023/02/28 07:53:51;;;;;;;19.57;10.07;;;1.40;99.90;;;;;;4212455;28;20265;-61
2023/02/28 07:55:56;;;;;;;19.47;10.17;;;1.30;99.90;;;;;;4211420;28;20643;-67
2023/02/28 07:57:58;;;;;;;21.40;10.43;;;1.30;99.90;;;;;;4212682;28;20269;-64
2023/02/28 07:59:59;;;;;;;18.17;10.03;;;1.30;99.90;;;;;;4211620;28;20641;-67
2023/02/28 08:02:00;;;;;;;18.43;10.20;;;1.30;99.90;;;;;;4212692;28;20264;-62
2023/02/28 08:04:01;;;;;;;20.10;10.80;;;1.30;99.90;;;;;;4211284;28;20260;-67
2023/02/28 08:06:04;;;;;;;17.50;10.43;;;1.40;99.90;;;;;;4212519;28;20277;-64
2023/02/28 08:08:06;;;;;;;17.93;9.77;;;1.40;99.90;;;;;;4211546;28;20264;-65
2023/02/28 08:10:09;;;;;;;17.27;10.17;;;1.50;99.90;;;;;;4210898;28;20289;-66
2023/02/28 08:12:11;;;;;;;21.97;11.77;;;1.50;99.90;;;;;;4211470;28;20321;-67
2023/02/28 08:14:13;;;;;;;21.03;10.67;;;1.60;99.90;;;;;;4211538;28;20256;-62
2023/02/28 08:16:17;;;;;;;17.77;9.87;;;1.60;99.90;;;;;;4211708;28;20272;-66
2023/02/28 08:18:18;;;;;;;20.27;10.93;;;1.70;99.90;;;;;;4211189;28;20265;-65
2023/02/28 08:20:19;;;;;;;20.47;10.90;;;1.80;99.90;;;;;;4210641;28;20280;-61
2023/02/28 08:22:20;;;;;;;19.80;11.40;;;2.00;99.90;;;;;;4210889;28;20341;-68
2023/02/28 08:24:21;;;;;;;20.13;10.20;;;2.00;99.90;;;;;;4211757;28;20733;-64
2023/02/28 08:26:22;;;;;;;21.70;11.40;;;2.10;99.90;;;;;;4210642;28;20828;-64
2023/02/28 08:28:24;;;;;;;17.77;10.10;;;2.20;99.90;;;;;;4211605;28;20261;-61
2023/02/28 08:30:25;;;;;;;49.33;27.40;;;2.30;99.90;;;;;;4210777;28;20823;-63
2023/02/28 08:32:26;;;;;;;54.40;29.93;;;2.40;99.90;;;;;;4212381;28;20260;-62
2023/02/28 08:34:27;;;;;;;21.00;12.00;;;2.60;99.90;;;;;;4210492;28;20268;-61
2023/02/28 08:36:28;;;;;;;22.60;12.13;;;2.70;99.90;;;;;;4211717;28;20288;-61
2023/02/28 08:38:29;;;;;;;17.60;10.33;;;2.90;99.90;;;;;;4210418;28;20800;-64
2023/02/28 08:40:31;;;;;;;20.77;11.63;;;2.90;99.90;;;;;;4211315;28;20724;-65
2023/02/28 08:42:32;;;;;;;21.33;12.90;;;2.90;99.90;;;;;;4210618;28;20264;-64
2023/02/28 08:44:34;;;;;;;21.03;11.80;;;3.00;99.90;;;;;;4211610;28;20276;-68
2023/02/28 08:46:35;;;;;;;21.50;12.27;;;2.90;99.90;;;;;;4211394;28;20724;-67
2023/02/28 08:48:39;;;;;;;19.87;11.13;;;2.90;99.90;;;;;;4210563;28;20264;-64
2023/02/28 08:50:40;;;;;;;20.00;11.17;;;2.90;99.90;;;;;;4211663;28;20269;-65
2023/02/28 08:52:44;;;;;;;19.37;9.57;;;2.90;99.90;;;;;;4210906;28;20341;-62
2023/02/28 08:54:45;;;;;;;18.33;10.30;;;3.00;99.90;;;;;;4211666;28;20667;-67
2023/02/28 08:56:47;;;;;;;18.53;10.73;;;3.10;99.90;;;;;;4210653;28;20313;-63
2023/02/28 08:58:49;;;;;;;19.50;10.70;;;3.00;99.90;;;;;;4211726;28;20318;-61
2023/02/28 09:00:51;;;;;;;18.23;10.50;;;3.10;99.90;;;;;;4209100;28;20265;-63
2023/02/28 09:02:52;;;;;;;18.30;10.53;;;3.00;99.90;;;;;;4212105;28;20337;-65
2023/02/28 09:04:53;;;;;;;19.63;10.57;;;3.00;99.90;;;;;;4210376;28;20757;-66
2023/02/28 09:06:55;;;;;;;18.63;11.30;;;3.10;99.90;;;;;;4211682;28;20307;-61
2023/02/28 09:08:58;;;;;;;19.20;10.60;;;3.10;99.90;;;;;;4210514;28;20296;-65
2023/02/28 09:11:01;;;;;;;20.03;11.60;;;3.30;99.90;;;;;;4211159;28;20318;-62
2023/02/28 09:13:02;;;;;;;21.27;12.50;;;3.40;99.90;;;;;;4209782;28;20377;-63
2023/02/28 09:15:04;;;;;;;24.23;13.10;;;3.50;99.90;;;;;;4210814;28;20333;-66
2023/02/28 09:17:05;;;;;;;24.17;12.10;;;3.40;99.90;;;;;;4208101;28;20257;-61
2023/02/28 09:19:10;;;;;;;21.40;12.13;;;3.50;99.90;;;;;;4210518;28;20766;-63
2023/02/28 09:21:14;;;;;;;22.80;11.67;;;3.50;99.90;;;;;;4210811;28;20334;-62
2023/02/28 09:23:16;;;;;;;21.40;11.43;;;3.60;99.90;;;;;;4209959;28;20268;-60
2023/02/28 09:25:17;;;;;;;20.33;11.97;;;3.60;99.90;;;;;;4211263;28;20594;-64
2023/02/28 09:27:18;;;;;;;24.03;12.83;;;3.70;99.90;;;;;;4210095;28;20272;-61
2023/02/28 09:29:20;;;;;;;21.93;11.57;;;3.70;99.90;;;;;;4211081;28;20693;-63
2023/02/28 09:31:27;;;;;;;21.27;11.77;;;3.60;99.90;;;;;;4210062;28;20281;-61
2023/02/28 09:33:28;;;;;;;22.43;11.43;;;3.70;99.90;;;;;;4211333;28;20675;-62
2023/02/28 09:35:30;;;;;;;23.50;12.07;;;3.80;99.90;;;;;;4209838;28;20268;-62
2023/02/28 09:37:31;;;;;;;28.10;14.40;;;3.90;99.90;;;;;;4210829;28;20368;-62
2023/02/28 09:39:33;;;;;;;23.87;12.77;;;3.90;99.90;;;;;;4209770;28;20256;-61
2023/02/28 09:41:47;;;;;;;23.47;13.23;;;4.00;99.90;;;;;;4211276;28;20264;-61
2023/02/28 09:43:53;;;;;;;21.77;13.30;;;4.20;99.90;;;;;;4210036;28;20269;-61
2023/02/28 09:46:12;;;;;;;23.83;11.87;;;4.60;99.90;;;;;;4211032;28;20345;-62
2023/02/28 09:48:22;;;;;;;22.77;12.50;;;4.60;99.90;;;;;;4209780;28;20277;-60
2023/02/28 09:50:26;;;;;;;24.13;12.77;;;4.50;99.90;;;;;;4210723;28;20355;-61
2023/02/28 09:52:31;;;;;;;29.80;13.17;;;4.40;99.90;;;;;;4209814;28;20322;-61
2023/02/28 09:54:33;;;;;;;21.73;11.73;;;4.50;99.90;;;;;;4209921;28;20299;-62
2023/02/28 09:56:41;;;;;;;20.37;11.10;;;4.70;99.90;;;;;;4209753;28;20310;-61
2023/02/28 09:59:07;;;;;;;20.83;11.90;;;4.60;99.90;;;;;;4210768;28;20281;-62
2023/02/28 10:01:32;;;;;;;19.40;11.27;;;4.80;99.90;;;;;;4200692;28;20345;-62
2023/02/28 10:03:47;;;;;;;15.70;9.50;;;5.00;99.90;;;;;;4210910;28;20778;-62
2023/02/28 10:06:14;;;;;;;16.67;10.20;;;4.90;99.90;;;;;;4209695;28;20028;-62
2023/02/28 10:08:25;;;;;;;18.03;10.37;;;4.90;99.90;;;;;;4208817;28;20043;-67
2023/02/28 10:10:38;;;;;;;18.00;9.77;;;4.90;99.90;;;;;;4209637;28;20531;-61
2023/02/28 10:12:44;;;;;;;17.90;10.40;;;4.90;99.90;;;;;;4210945;28;20081;-61
2023/02/28 10:14:49;;;;;;;16.80;9.93;;;5.10;99.90;;;;;;4209875;28;20049;-61
2023/02/28 10:17:13;;;;;;;16.10;9.47;;;5.10;99.90;;;;;;4211052;28;20419;-60
2023/02/28 10:19:23;;;;;;;16.30;9.90;;;5.20;99.90;;;;;;4209892;28;20048;-65
2023/02/28 10:21:31;;;;;;;16.88;9.98;;;5.10;99.90;;;;;;4211067;28;20385;-61
2023/02/28 10:23:37;;;;;;;18.50;9.97;;;5.10;99.90;;;;;;4209320;28;20032;-64
2023/02/28 10:25:38;;;;;;;19.33;10.23;;;5.10;99.90;;;;;;4213680;28;20077;-62
2023/02/28 10:27:40;;;;;;;16.63;9.77;;;5.30;99.90;;;;;;4212437;28;20338;-61
2023/02/28 10:29:44;;;;;;;18.50;10.07;;;5.50;99.90;;;;;;4213904;28;20384;-66
2023/02/28 10:31:45;;;;;;;15.97;9.90;;;5.40;99.90;;;;;;4212951;28;20043;-62
2023/02/28 10:33:47;;;;;;;17.87;10.63;;;5.40;99.90;;;;;;4213979;28;20089;-62
2023/02/28 10:35:49;;;;;;;18.03;11.03;;;5.30;99.90;;;;;;4212597;28;20039;-65
2023/02/28 10:37:55;;;;;;;17.50;10.77;;;5.30;99.90;;;;;;4213601;28;20085;-62